Time;durP1;ratioP1;P1;durP2;ratioP2;P2;SDS_P1;SDS_P2;PMS_P1;PMS_P2;Temp;Humidity;BMP_temperature;BMP_pressure;BME280_temperature;BME280_humidity;BME280_pressure;Samples;Min_cycle;Max_cycle;Signal;HPM_P1;HPM_P2
2023/04/14 00:01:51;;;;;;;4.82;2.72;;;6.20;99.90;;;;;;4963030;28;20217;-65
2023/04/14 00:04:18;;;;;;;4.57;2.58;;;6.10;99.90;;;;;;4979034;28;20050;-65
2023/04/14 00:06:44;;;;;;;5.20;2.60;;;6.20;99.90;;;;;;4976458;28;20061;-65
2023/04/14 00:09:11;;;;;;;5.85;2.58;;;6.10;99.90;;;;;;4976364;28;20047;-65
2023/04/14 00:11:37;;;;;;;3.90;2.22;;;6.00;99.90;;;;;;4975724;28;20082;-64
2023/04/14 00:14:03;;;;;;;3.40;2.40;;;6.00;99.90;;;;;;4976511;28;20090;-65
2023/04/14 00:16:30;;;;;;;6.43;2.60;;;6.00;99.90;;;;;;4979123;28;20466;-65
2023/04/14 00:18:56;;;;;;;5.95;2.92;;;5.90;99.90;;;;;;4979215;28;20541;-65
2023/04/14 00:21:22;;;;;;;6.03;3.00;;;5.90;99.90;;;;;;4978469;28;20088;-66
2023/04/14 00:23:48;;;;;;;4.57;2.75;;;5.80;99.90;;;;;;4977474;28;20057;-65
2023/04/14 00:26:15;;;;;;;4.07;2.58;;;5.80;99.90;;;;;;4977993;28;20061;-64
2023/04/14 00:28:41;;;;;;;8.43;2.85;;;5.70;99.90;;;;;;4977163;28;20153;-65
2023/04/14 00:31:07;;;;;;;4.68;2.30;;;5.70;99.90;;;;;;4976955;28;20140;-65
2023/04/14 00:33:34;;;;;;;7.03;2.88;;;5.70;99.90;;;;;;4961116;28;20065;-65
2023/04/14 00:36:00;;;;;;;4.00;2.38;;;5.70;99.90;;;;;;4978037;28;20058;-65
2023/04/14 00:38:26;;;;;;;6.63;2.97;;;5.70;99.90;;;;;;4977245;28;20113;-64
2023/04/14 00:40:52;;;;;;;4.18;2.60;;;5.60;99.90;;;;;;4977128;28;20085;-65
2023/04/14 00:43:19;;;;;;;5.32;2.72;;;5.60;99.90;;;;;;4977722;28;20069;-65
2023/04/14 00:45:48;;;;;;;4.72;2.72;;;5.60;99.90;;;;;;4986438;28;20473;-65
2023/04/14 00:48:15;;;;;;;4.68;2.65;;;5.60;99.90;;;;;;4990693;28;20411;-65
2023/04/14 00:50:42;;;;;;;5.93;3.30;;;5.60;99.90;;;;;;4976926;28;20077;-65
2023/04/14 00:53:10;;;;;;;3.00;2.63;;;5.60;99.90;;;;;;4960999;28;20053;-65
2023/04/14 00:55:38;;;;;;;6.05;2.70;;;5.60;99.90;;;;;;4977549;28;20082;-65
2023/04/14 00:58:04;;;;;;;5.38;3.30;;;5.60;99.90;;;;;;4976580;28;20078;-65
2023/04/14 01:00:34;;;;;;;8.43;3.42;;;5.50;99.90;;;;;;4976702;28;20682;-65
2023/04/14 01:03:00;;;;;;;5.97;2.90;;;5.50;99.90;;;;;;4976505;28;20414;-65
2023/04/14 01:05:26;;;;;;;5.93;3.10;;;5.50;99.90;;;;;;4976931;28;20054;-65
2023/04/14 01:07:53;;;;;;;4.38;2.95;;;5.50;99.90;;;;;;4976425;28;20506;-65
2023/04/14 01:10:19;;;;;;;6.68;3.28;;;5.50;99.90;;;;;;4976275;28;20053;-64
2023/04/14 01:13:04;;;;;;;5.95;3.05;;;5.40;99.90;;;;;;4976908;28;20113;-65
2023/04/14 01:15:48;;;;;;;4.75;2.72;;;5.40;99.90;;;;;;4973237;28;20051;-65
2023/04/14 01:18:29;;;;;;;5.88;2.80;;;5.40;99.90;;;;;;4973337;28;20103;-64
2023/04/14 01:21:02;;;;;;;5.85;2.80;;;5.40;99.90;;;;;;4973268;28;20100;-65
2023/04/14 01:23:38;;;;;;;7.93;3.00;;;5.30;99.90;;;;;;4973562;28;20170;-66
2023/04/14 01:26:18;;;;;;;6.03;3.15;;;5.30;99.90;;;;;;4973939;28;20062;-65
2023/04/14 01:28:47;;;;;;;6.28;3.17;;;5.30;99.90;;;;;;4973565;28;20085;-65
2023/04/14 01:31:22;;;;;;;6.45;2.88;;;5.20;99.90;;;;;;4957131;28;20050;-66
2023/04/14 01:34:03;;;;;;;6.43;3.40;;;5.20;99.90;;;;;;4973555;28;20065;-66
2023/04/14 01:36:41;;;;;;;8.15;3.75;;;5.20;99.90;;;;;;4973521;28;20143;-65
2023/04/14 01:39:10;;;;;;;4.22;2.95;;;5.20;99.90;;;;;;4975220;28;20173;-64
2023/04/14 01:41:41;;;;;;;5.75;3.13;;;5.20;99.90;;;;;;4973322;28;20173;-65
2023/04/14 01:44:09;;;;;;;7.25;3.42;;;5.20;99.90;;;;;;4973408;28;20082;-65
2023/04/14 01:46:36;;;;;;;5.22;3.20;;;5.10;99.90;;;;;;4973472;28;20427;-65
2023/04/14 01:49:03;;;;;;;6.10;3.15;;;5.10;99.90;;;;;;4973274;28;20082;-65
2023/04/14 01:51:32;;;;;;;5.53;3.30;;;5.10;99.90;;;;;;4973529;28;20141;-65
2023/04/14 01:54:01;;;;;;;6.63;3.33;;;5.10;99.90;;;;;;4973614;28;20455;-64
2023/04/14 01:56:28;;;;;;;5.88;3.03;;;5.10;99.90;;;;;;4954312;29;20058;-64
2023/04/14 01:58:56;;;;;;;5.07;2.72;;;5.10;99.90;;;;;;4970378;28;20087;-64
2023/04/14 02:01:25;;;;;;;7.25;4.03;;;5.10;99.90;;;;;;4953627;29;20067;-65
2023/04/14 02:03:51;;;;;;;7.57;3.20;;;5.10;99.90;;;;;;4969944;28;20083;-64
2023/04/14 02:06:20;;;;;;;6.22;2.83;;;5.20;99.90;;;;;;4970085;28;20055;-65
2023/04/14 02:08:47;;;;;;;6.20;3.50;;;5.10;99.90;;;;;;4956412;28;20078;-65
2023/04/14 02:11:15;;;;;;;6.95;3.70;;;5.10;99.90;;;;;;4973072;28;20059;-65
2023/04/14 02:13:42;;;;;;;6.50;3.80;;;5.10;99.90;;;;;;4973070;28;20051;-65
2023/04/14 02:16:10;;;;;;;8.45;3.17;;;5.10;99.90;;;;;;4972786;28;20098;-65
2023/04/14 02:18:39;;;;;;;6.53;3.13;;;5.10;99.90;;;;;;4973076;28;20050;-65
2023/04/14 02:21:07;;;;;;;5.68;3.60;;;5.00;99.90;;;;;;4972660;28;20082;-65
2023/04/14 02:23:33;;;;;;;6.07;3.58;;;5.10;99.90;;;;;;4973122;28;20411;-64
2023/04/14 02:26:13;;;;;;;7.85;3.33;;;5.10;99.90;;;;;;4972938;28;20042;-65
2023/04/14 02:28:50;;;;;;;8.13;3.42;;;5.00;99.90;;;;;;4972177;28;20558;-65
2023/04/14 02:31:22;;;;;;;5.32;2.92;;;5.00;99.90;;;;;;4972315;28;20094;-65
2023/04/14 02:33:53;;;;;;;7.47;3.08;;;5.00;99.90;;;;;;4972578;28;20058;-65
2023/04/14 02:36:31;;;;;;;7.22;3.25;;;5.00;99.90;;;;;;4972285;28;20084;-65
2023/04/14 02:39:02;;;;;;;5.22;3.17;;;4.90;99.90;;;;;;4972477;28;20089;-65
2023/04/14 02:41:31;;;;;;;5.22;3.10;;;4.90;99.90;;;;;;4972036;28;20050;-65
2023/04/14 02:44:07;;;;;;;5.18;2.42;;;4.90;99.90;;;;;;4972496;28;20046;-65
2023/04/14 02:46:40;;;;;;;5.60;3.10;;;4.90;99.90;;;;;;4972306;28;20105;-65
2023/04/14 02:49:09;;;;;;;5.22;2.80;;;4.90;99.90;;;;;;4971910;28;20053;-65
2023/04/14 02:51:37;;;;;;;8.88;2.65;;;5.00;99.90;;;;;;4972194;28;20380;-65
2023/04/14 02:54:04;;;;;;;5.68;3.60;;;5.00;99.90;;;;;;4972039;28;20054;-65
2023/04/14 02:56:31;;;;;;;7.03;2.70;;;5.00;99.90;;;;;;4972516;28;20331;-64
2023/04/14 02:58:58;;;;;;;6.47;3.05;;;5.00;99.90;;;;;;4972264;28;20171;-65
2023/04/14 03:01:25;;;;;;;8.45;3.35;;;5.00;99.90;;;;;;4972255;28;20512;-65
2023/04/14 03:03:55;;;;;;;6.93;2.70;;;5.20;99.90;;;;;;4972207;28;20162;-64
2023/04/14 03:06:23;;;;;;;8.38;3.50;;;5.00;99.90;;;;;;4972140;28;20051;-64
2023/04/14 03:08:50;;;;;;;8.38;2.83;;;5.00;99.90;;;;;;4972145;28;20062;-64
2023/04/14 03:11:17;;;;;;;5.22;3.20;;;5.00;99.90;;;;;;4972136;28;20489;-65
2023/04/14 03:13:45;;;;;;;7.13;2.53;;;4.90;99.90;;;;;;4972362;28;20054;-64
2023/04/14 03:16:12;;;;;;;5.60;2.75;;;4.90;99.90;;;;;;4971844;28;20113;-65
2023/04/14 03:18:40;;;;;;;7.70;3.00;;;4.90;99.90;;;;;;4972647;28;20154;-65
2023/04/14 03:21:07;;;;;;;5.72;3.03;;;4.90;99.90;;;;;;4972802;28;20050;-64
2023/04/14 03:23:35;;;;;;;10.20;3.17;;;4.80;99.90;;;;;;4975987;28;20050;-65
2023/04/14 03:26:04;;;;;;;6.80;3.83;;;4.80;99.90;;;;;;4960258;28;20050;-65
2023/04/14 03:28:33;;;;;;;6.82;2.60;;;4.70;99.90;;;;;;4976288;28;20364;-65
2023/04/14 03:31:03;;;;;;;7.63;2.97;;;4.70;99.90;;;;;;4976036;28;20097;-65
2023/04/14 03:33:31;;;;;;;5.38;3.50;;;4.70;99.90;;;;;;4975529;28;20370;-64
2023/04/14 03:35:59;;;;;;;8.07;3.35;;;4.70;99.90;;;;;;4975327;28;20086;-65
2023/04/14 03:38:26;;;;;;;6.88;3.92;;;4.70;99.90;;;;;;4975873;28;20415;-65
2023/04/14 03:40:58;;;;;;;8.57;3.30;;;4.70;99.90;;;;;;4975371;28;20118;-65
2023/04/14 03:43:27;;;;;;;6.88;3.45;;;4.70;99.90;;;;;;4975634;28;20138;-66
2023/04/14 03:45:53;;;;;;;7.95;2.85;;;4.70;99.90;;;;;;4991600;28;20082;-65
2023/04/14 03:48:20;;;;;;;6.10;3.17;;;4.70;99.90;;;;;;4975819;28;20077;-65
2023/04/14 03:50:50;;;;;;;5.55;2.97;;;4.70;99.90;;;;;;4991861;28;20062;-65
2023/04/14 03:53:18;;;;;;;8.60;3.80;;;4.60;99.90;;;;;;4975649;28;20154;-65
2023/04/14 03:55:45;;;;;;;5.30;3.28;;;4.60;99.90;;;;;;4991492;28;20058;-65
2023/04/14 03:58:14;;;;;;;11.90;3.58;;;4.60;99.90;;;;;;4975524;28;20055;-64
2023/04/14 04:00:42;;;;;;;5.18;3.15;;;4.50;99.90;;;;;;4975021;28;20154;-65
2023/04/14 04:03:09;;;;;;;7.43;3.40;;;4.50;99.90;;;;;;4975367;28;20474;-64
2023/04/14 04:05:39;;;;;;;6.35;2.95;;;4.50;99.90;;;;;;4975365;28;20079;-65
2023/04/14 04:08:08;;;;;;;6.43;3.00;;;4.40;99.90;;;;;;4975612;28;20138;-65
2023/04/14 04:10:35;;;;;;;6.32;3.38;;;4.40;99.90;;;;;;4974779;28;20047;-64
2023/04/14 04:13:05;;;;;;;6.07;2.90;;;4.40;99.90;;;;;;4975599;28;20086;-65
2023/04/14 04:15:32;;;;;;;6.28;3.35;;;4.40;99.90;;;;;;4975188;28;20074;-65
2023/04/14 04:18:00;;;;;;;4.85;3.40;;;4.40;99.90;;;;;;4976718;28;20054;-65
2023/04/14 04:20:28;;;;;;;5.82;3.30;;;4.40;99.90;;;;;;4974756;28;20086;-65
2023/04/14 04:22:56;;;;;;;6.85;3.00;;;4.30;99.90;;;;;;4975135;28;20439;-64
2023/04/14 04:25:23;;;;;;;9.43;4.20;;;4.30;99.90;;;;;;4975104;28;20054;-64
2023/04/14 04:27:49;;;;;;;5.25;3.60;;;4.30;99.90;;;;;;4974569;28;20078;-65
2023/04/14 04:30:18;;;;;;;7.75;3.58;;;4.30;99.90;;;;;;4974519;28;20498;-65
2023/04/14 04:32:44;;;;;;;6.13;3.70;;;4.20;99.90;;;;;;4983667;28;20454;-65
2023/04/14 04:35:11;;;;;;;6.45;3.53;;;4.20;99.90;;;;;;4960933;28;20046;-64
2023/04/14 04:37:38;;;;;;;7.03;3.13;;;4.20;99.90;;;;;;4974359;28;20394;-65
2023/04/14 04:40:06;;;;;;;5.63;3.03;;;4.20;99.90;;;;;;4974774;28;20146;-64
2023/04/14 04:42:32;;;;;;;6.32;3.20;;;4.10;99.90;;;;;;4973873;28;20101;-65
2023/04/14 04:44:58;;;;;;;5.40;3.72;;;4.10;99.90;;;;;;4974210;28;20082;-64
2023/04/14 04:47:24;;;;;;;6.63;3.70;;;4.10;99.90;;;;;;4973702;28;20132;-65
2023/04/14 04:49:51;;;;;;;7.82;4.57;;;4.10;99.90;;;;;;4973697;28;20085;-65
2023/04/14 04:52:17;;;;;;;7.78;4.10;;;4.10;99.90;;;;;;4973954;28;20383;-65
2023/04/14 04:54:44;;;;;;;6.13;3.33;;;4.10;99.90;;;;;;4973675;28;20042;-64
2023/04/14 04:57:10;;;;;;;6.28;3.72;;;4.10;99.90;;;;;;4973755;28;20050;-65
2023/04/14 04:59:36;;;;;;;5.75;3.92;;;4.10;99.90;;;;;;4972959;28;20047;-65
2023/04/14 05:02:02;;;;;;;6.72;2.97;;;4.10;99.90;;;;;;4973585;28;20082;-65
2023/04/14 05:04:29;;;;;;;7.15;4.07;;;4.10;99.90;;;;;;4974041;28;20101;-65
2023/04/14 05:06:56;;;;;;;5.90;4.15;;;4.10;99.90;;;;;;4973845;28;20043;-65
2023/04/14 05:09:22;;;;;;;7.03;4.40;;;4.10;99.90;;;;;;4974489;28;20069;-65
2023/04/14 05:11:48;;;;;;;6.78;3.78;;;4.10;99.90;;;;;;4974367;28;20432;-65
2023/04/14 05:14:15;;;;;;;8.10;3.70;;;4.20;99.90;;;;;;4974656;28;20059;-65
2023/04/14 05:16:41;;;;;;;6.80;3.58;;;4.10;99.90;;;;;;4977568;28;20050;-65
2023/04/14 05:19:07;;;;;;;6.30;3.42;;;4.20;99.90;;;;;;4961192;28;20096;-64
2023/04/14 05:21:34;;;;;;;6.68;3.78;;;4.30;99.90;;;;;;4977150;28;20050;-64
2023/04/14 05:24:00;;;;;;;6.88;4.10;;;4.30;99.90;;;;;;4977507;28;20058;-65
2023/04/14 05:26:27;;;;;;;7.93;4.20;;;4.30;99.90;;;;;;4977679;28;20478;-63
2023/04/14 05:28:56;;;;;;;7.15;4.13;;;4.30;99.90;;;;;;4959765;28;20082;-63
2023/04/14 05:31:22;;;;;;;7.28;4.35;;;4.40;99.90;;;;;;4992347;28;20101;-65
2023/04/14 05:33:48;;;;;;;7.97;3.50;;;4.50;99.90;;;;;;4982613;28;20065;-63
2023/04/14 05:36:15;;;;;;;6.53;4.03;;;4.50;99.90;;;;;;4992164;28;20132;-65
2023/04/14 05:38:41;;;;;;;5.15;4.00;;;4.60;99.90;;;;;;4992689;28;20429;-65
2023/04/14 05:41:08;;;;;;;8.93;4.20;;;5.00;99.90;;;;;;4992183;28;20082;-65
2023/04/14 05:43:34;;;;;;;9.48;4.03;;;5.60;99.90;;;;;;4991577;28;20050;-62
2023/04/14 05:46:01;;;;;;;7.20;4.00;;;5.90;99.90;;;;;;4967028;28;20050;-64
2023/04/14 05:48:29;;;;;;;10.05;4.00;;;5.90;99.90;;;;;;4978454;28;20427;-63
2023/04/14 05:50:56;;;;;;;7.35;3.95;;;6.10;99.90;;;;;;4988746;28;20050;-63
2023/04/14 05:53:22;;;;;;;7.30;3.45;;;6.70;99.90;;;;;;4975239;28;20326;-64
2023/04/14 05:55:51;;;;;;;7.97;4.22;;;7.40;99.90;;;;;;4991908;28;20055;-63
2023/04/14 05:58:17;;;;;;;7.38;3.67;;;8.20;99.90;;;;;;4991896;28;20419;-64
2023/04/14 06:00:43;;;;;;;7.65;3.85;;;8.90;99.90;;;;;;4990958;28;20068;-64
2023/04/14 06:03:09;;;;;;;7.43;4.78;;;9.30;99.90;;;;;;4990800;28;20054;-63
2023/04/14 06:05:36;;;;;;;9.50;4.28;;;9.80;99.90;;;;;;4991542;28;20038;-64
2023/04/14 06:08:02;;;;;;;8.18;4.25;;;10.10;99.90;;;;;;4991112;28;20198;-64
2023/04/14 06:10:30;;;;;;;6.78;3.90;;;10.20;99.90;;;;;;4990518;28;20078;-65
2023/04/14 06:12:57;;;;;;;9.93;3.92;;;10.60;99.90;;;;;;4991954;28;20050;-67
2023/04/14 06:15:27;;;;;;;9.73;4.80;;;10.90;99.90;;;;;;4985210;28;20051;-65
2023/04/14 06:17:53;;;;;;;6.28;4.45;;;11.10;99.90;;;;;;4971447;28;20078;-65
2023/04/14 06:20:20;;;;;;;8.88;4.00;;;11.40;99.90;;;;;;4971758;28;20055;-64
2023/04/14 06:22:47;;;;;;;8.35;4.00;;;11.80;99.90;;;;;;4970571;28;20078;-65
2023/04/14 06:25:14;;;;;;;6.60;3.85;;;11.90;99.90;;;;;;4976920;28;20078;-63
2023/04/14 06:27:40;;;;;;;7.25;4.18;;;12.10;99.90;;;;;;4991390;28;20082;-63
2023/04/14 06:30:07;;;;;;;7.80;4.45;;;12.30;99.90;;;;;;4973810;28;20073;-64
2023/04/14 06:32:33;;;;;;;8.85;4.15;;;12.30;99.90;;;;;;4991497;28;20374;-64
2023/04/14 06:35:00;;;;;;;6.07;4.43;;;12.30;99.90;;;;;;4987917;28;20055;-66
2023/04/14 06:37:26;;;;;;;8.48;4.05;;;12.30;99.90;;;;;;4972146;28;20050;-64
2023/04/14 06:39:52;;;;;;;6.35;4.00;;;12.30;99.90;;;;;;4970940;28;20054;-65
2023/04/14 06:42:19;;;;;;;6.60;4.13;;;12.20;99.90;;;;;;4970424;28;20530;-64
2023/04/14 06:44:48;;;;;;;5.97;4.45;;;12.30;99.90;;;;;;4971447;28;20177;-64
2023/04/14 06:47:19;;;;;;;8.13;4.32;;;12.10;99.90;;;;;;4973028;28;20052;-64
2023/04/14 06:49:45;;;;;;;9.57;4.95;;;12.20;99.90;;;;;;4973581;28;20085;-64
2023/04/14 06:52:12;;;;;;;9.10;5.07;;;12.20;99.90;;;;;;4990813;28;20093;-64
2023/04/14 06:54:38;;;;;;;8.45;4.70;;;12.30;99.90;;;;;;4973082;28;20058;-64
2023/04/14 06:57:04;;;;;;;9.10;4.57;;;12.50;99.90;;;;;;4969488;28;20046;-65
2023/04/14 06:59:31;;;;;;;9.40;4.43;;;12.70;99.90;;;;;;4969373;28;20094;-64
2023/04/14 07:01:57;;;;;;;9.00;4.75;;;12.70;99.90;;;;;;4971711;28;20457;-65
2023/04/14 07:04:24;;;;;;;10.75;4.65;;;12.90;99.90;;;;;;4971909;28;20050;-65
2023/04/14 07:06:50;;;;;;;7.60;4.85;;;12.90;99.90;;;;;;4988964;28;20117;-64
2023/04/14 07:09:18;;;;;;;9.52;4.72;;;12.80;99.90;;;;;;4991160;28;20054;-64
2023/04/14 07:11:45;;;;;;;8.45;4.60;;;13.00;99.90;;;;;;4991141;28;20093;-64
2023/04/14 07:14:11;;;;;;;11.05;4.20;;;13.00;99.90;;;;;;4991023;28;20061;-65
2023/04/14 07:16:37;;;;;;;8.02;4.88;;;12.70;99.90;;;;;;4969496;28;20117;-66
2023/04/14 07:19:04;;;;;;;11.30;4.22;;;12.30;99.90;;;;;;4970669;28;20065;-65
2023/04/14 07:21:30;;;;;;;8.13;3.63;;;12.20;99.90;;;;;;4973600;28;20089;-65
2023/04/14 07:23:56;;;;;;;9.38;4.32;;;12.10;99.90;;;;;;4990894;28;20085;-65
2023/04/14 07:26:23;;;;;;;7.50;3.85;;;12.00;99.90;;;;;;4976974;28;20074;-65
2023/04/14 07:28:49;;;;;;;7.63;3.65;;;12.10;99.90;;;;;;4971255;28;20077;-65
2023/04/14 07:31:16;;;;;;;8.13;4.07;;;12.10;99.90;;;;;;4971522;28;20093;-65
2023/04/14 07:33:42;;;;;;;10.15;3.88;;;12.20;99.90;;;;;;4970633;28;20086;-64
2023/04/14 07:36:08;;;;;;;7.85;3.35;;;12.30;99.90;;;;;;4982646;28;20094;-64
2023/04/14 07:38:35;;;;;;;6.80;3.03;;;12.40;99.90;;;;;;4973277;28;20370;-66
2023/04/14 07:41:03;;;;;;;9.82;3.45;;;12.30;99.90;;;;;;4973406;28;20158;-64
2023/04/14 07:43:36;;;;;;;7.40;3.45;;;12.40;99.90;;;;;;4990700;28;20365;-66
2023/04/14 07:46:03;;;;;;;7.63;3.20;;;12.40;99.90;;;;;;4969847;28;20526;-65
2023/04/14 07:48:39;;;;;;;6.85;3.25;;;12.40;99.90;;;;;;4954013;28;20118;-66
2023/04/14 07:51:06;;;;;;;6.43;3.47;;;12.50;99.90;;;;;;4969953;28;20482;-64
2023/04/14 07:53:33;;;;;;;8.48;3.58;;;12.60;99.90;;;;;;4970336;28;20073;-66
2023/04/14 07:55:59;;;;;;;9.07;2.88;;;12.70;99.90;;;;;;4981181;28;20378;-69
2023/04/14 07:58:26;;;;;;;10.13;3.53;;;12.70;99.90;;;;;;4960318;28;20126;-66
2023/04/14 08:00:52;;;;;;;8.57;3.22;;;12.90;99.90;;;;;;4948812;29;20362;-65
2023/04/14 08:03:18;;;;;;;7.88;3.38;;;12.90;99.90;;;;;;4947974;28;20110;-67
2023/04/14 08:05:45;;;;;;;7.07;3.58;;;12.90;99.90;;;;;;4959773;28;20047;-68
2023/04/14 08:08:12;;;;;;;8.23;3.67;;;13.00;99.90;;;;;;4954382;28;20459;-64
2023/04/14 08:10:41;;;;;;;8.65;3.45;;;13.00;99.90;;;;;;4972983;28;20057;-65
2023/04/14 08:13:07;;;;;;;5.70;2.92;;;13.10;99.90;;;;;;4972978;28;20082;-66
2023/04/14 08:15:33;;;;;;;5.53;3.13;;;13.20;99.90;;;;;;4969019;28;20046;-65
2023/04/14 08:18:00;;;;;;;5.70;3.65;;;13.10;99.90;;;;;;4990550;28;20055;-66
2023/04/14 08:20:26;;;;;;;7.28;2.78;;;13.20;99.90;;;;;;4992319;28;20097;-65
2023/04/14 08:22:55;;;;;;;7.90;3.38;;;13.00;99.90;;;;;;4992193;28;20137;-65
2023/04/14 08:25:21;;;;;;;7.05;3.28;;;13.10;99.90;;;;;;4989419;28;20423;-65
2023/04/14 08:27:48;;;;;;;6.30;3.22;;;13.20;99.90;;;;;;4990782;28;20050;-65
2023/04/14 08:30:14;;;;;;;10.23;3.60;;;13.30;99.90;;;;;;4975531;28;20085;-64
2023/04/14 08:32:40;;;;;;;8.68;3.22;;;13.40;99.90;;;;;;4993184;28;20126;-66
2023/04/14 08:35:08;;;;;;;8.80;3.85;;;13.50;99.90;;;;;;4975862;28;20505;-66
2023/04/14 08:37:34;;;;;;;8.40;3.47;;;13.40;99.90;;;;;;4992350;28;20046;-65
2023/04/14 08:40:01;;;;;;;9.60;4.25;;;13.50;99.90;;;;;;4991647;28;20072;-66
2023/04/14 08:42:27;;;;;;;8.00;3.78;;;13.60;99.90;;;;;;4993644;28;20077;-65
2023/04/14 08:44:54;;;;;;;7.65;3.20;;;13.80;99.90;;;;;;4992842;28;20152;-66
2023/04/14 08:47:23;;;;;;;8.80;3.47;;;13.70;99.90;;;;;;4959944;28;20054;-65
2023/04/14 08:50:14;;;;;;;7.32;3.10;;;13.70;99.90;;;;;;4993836;28;20057;-65
2023/04/14 08:52:41;;;;;;;7.80;3.28;;;13.80;99.90;;;;;;4993759;28;20069;-66
2023/04/14 08:55:10;;;;;;;5.35;2.90;;;13.90;99.90;;;;;;4993709;28;20050;-65
2023/04/14 08:57:37;;;;;;;6.40;3.05;;;13.80;99.90;;;;;;4976075;28;20046;-64
2023/04/14 09:00:04;;;;;;;6.45;3.05;;;13.80;99.90;;;;;;4993379;28;20085;-62
2023/04/14 09:02:32;;;;;;;8.48;3.25;;;13.80;99.90;;;;;;4992303;28;20086;-63
2023/04/14 09:04:59;;;;;;;5.30;2.00;;;14.00;99.90;;;;;;4975722;28;20157;-64
2023/04/14 09:07:26;;;;;;;4.75;2.33;;;14.00;99.90;;;;;;4993318;28;20046;-66
2023/04/14 09:09:53;;;;;;;6.22;2.97;;;14.00;99.90;;;;;;4981058;28;20054;-66
2023/04/14 09:12:20;;;;;;;7.80;2.88;;;14.00;99.90;;;;;;4978546;28;20459;-65
2023/04/14 09:14:47;;;;;;;6.45;2.78;;;14.00;99.90;;;;;;4970310;28;20179;-65
2023/04/14 09:17:14;;;;;;;5.35;2.63;;;14.10;99.90;;;;;;4969961;28;20050;-65
2023/04/14 09:19:41;;;;;;;7.50;2.72;;;14.30;99.90;;;;;;4971728;28;20061;-66
2023/04/14 09:22:08;;;;;;;4.95;2.55;;;14.30;99.90;;;;;;4971760;28;20082;-64
2023/04/14 09:24:34;;;;;;;9.23;3.03;;;14.40;99.90;;;;;;4971639;28;20050;-64
2023/04/14 09:27:06;;;;;;;9.52;3.00;;;14.40;99.90;;;;;;4971156;28;20118;-64
2023/04/14 09:29:32;;;;;;;8.20;3.00;;;14.50;99.90;;;;;;4971894;28;20070;-64
2023/04/14 09:31:59;;;;;;;4.60;2.88;;;14.50;99.90;;;;;;4971420;28;20058;-64
2023/04/14 09:34:25;;;;;;;5.70;2.55;;;14.40;99.90;;;;;;4970479;28;20108;-64
2023/04/14 09:37:06;;;;;;;7.68;2.58;;;14.40;99.90;;;;;;4953682;28;20054;-64
2023/04/14 09:39:33;;;;;;;6.05;2.45;;;14.50;99.60;;;;;;4971663;28;20176;-65
2023/04/14 09:42:01;;;;;;;7.07;3.08;;;14.70;99.90;;;;;;4971687;28;20462;-66
2023/04/14 09:44:27;;;;;;;4.70;2.22;;;14.70;99.90;;;;;;4971524;28;20134;-64
2023/04/14 09:47:06;;;;;;;5.68;2.60;;;14.70;98.90;;;;;;4970415;28;20366;-66
2023/04/14 09:49:34;;;;;;;4.95;2.20;;;14.80;98.50;;;;;;4970230;28;20051;-65
2023/04/14 09:52:07;;;;;;;4.57;1.83;;;14.70;99.20;;;;;;4970392;28;20046;-65
2023/04/14 09:54:35;;;;;;;4.93;2.25;;;14.80;98.90;;;;;;4953958;28;20402;-64
2023/04/14 09:57:01;;;;;;;5.43;2.33;;;14.80;98.30;;;;;;4970638;28;20458;-65
2023/04/14 09:59:32;;;;;;;8.80;2.17;;;14.80;97.60;;;;;;4970256;28;20164;-66
2023/04/14 10:02:08;;;;;;;4.40;1.95;;;14.90;98.50;;;;;;4953698;28;20378;-65
2023/04/14 10:04:36;;;;;;;4.97;2.03;;;15.00;97.20;;;;;;4969526;28;20053;-65
2023/04/14 10:07:10;;;;;;;6.05;2.65;;;15.10;97.40;;;;;;4969227;28;20050;-65
2023/04/14 10:09:36;;;;;;;6.82;2.40;;;15.20;97.80;;;;;;4969985;28;20438;-64
2023/04/14 10:12:11;;;;;;;5.18;2.05;;;15.20;97.50;;;;;;4969632;28;20064;-65
2023/04/14 10:14:39;;;;;;;8.63;2.17;;;15.20;97.50;;;;;;4976309;28;20101;-66
2023/04/14 10:17:06;;;;;;;5.03;2.20;;;15.20;97.70;;;;;;4990701;28;20043;-64
2023/04/14 10:19:33;;;;;;;4.22;2.15;;;15.20;96.60;;;;;;4990054;28;20129;-65
2023/04/14 10:22:00;;;;;;;4.80;1.77;;;15.20;97.30;;;;;;4989995;28;20060;-66
2023/04/14 10:24:27;;;;;;;3.88;2.22;;;15.20;96.40;;;;;;4972775;28;20466;-65
2023/04/14 10:26:54;;;;;;;5.55;1.80;;;15.30;96.90;;;;;;4988335;28;20057;-67
2023/04/14 10:29:22;;;;;;;5.68;2.20;;;15.40;96.80;;;;;;4991814;28;20385;-66
2023/04/14 10:32:00;;;;;;;4.95;2.05;;;15.40;96.20;;;;;;5009477;28;20464;-65
2023/04/14 10:34:31;;;;;;;5.38;1.98;;;15.50;96.00;;;;;;4991751;28;20165;-65
2023/04/14 10:37:14;;;;;;;5.55;2.20;;;15.60;96.50;;;;;;4992305;28;20065;-64
2023/04/14 10:39:41;;;;;;;4.97;2.40;;;15.50;95.30;;;;;;4973210;28;20058;-64
2023/04/14 10:42:08;;;;;;;5.38;2.20;;;15.50;96.50;;;;;;4973544;28;20082;-65
2023/04/14 10:44:35;;;;;;;6.05;2.40;;;15.60;96.40;;;;;;4989642;28;20455;-63
2023/04/14 10:47:03;;;;;;;4.40;2.10;;;15.70;96.50;;;;;;5008187;28;20299;-64
2023/04/14 10:49:33;;;;;;;5.65;2.28;;;15.70;96.40;;;;;;4993601;28;20052;-63
2023/04/14 10:52:05;;;;;;;4.53;2.05;;;15.70;96.60;;;;;;5010894;28;20399;-64
2023/04/14 10:54:51;;;;;;;;;;;15.70;96.80;;;;;;5011216;28;20401;-65
2023/04/14 10:57:23;;;;;;;5.55;2.50;;;16.00;96.20;;;;;;4988718;28;20009;-65
2023/04/14 10:59:58;;;;;;;4.30;2.13;;;16.20;96.60;;;;;;4984486;28;20129;-63
2023/04/14 11:02:33;;;;;;;6.60;2.33;;;16.30;96.80;;;;;;4989996;28;20061;-65
2023/04/14 11:05:10;;;;;;;4.45;1.70;;;16.60;95.70;;;;;;4989915;28;20154;-64
2023/04/14 11:07:44;;;;;;;5.13;2.15;;;16.60;94.70;;;;;;5008627;28;20089;-64
2023/04/14 11:10:16;;;;;;;4.22;2.42;;;16.50;94.90;;;;;;5009700;28;20124;-64
2023/04/14 11:12:43;;;;;;;4.60;2.20;;;16.20;95.20;;;;;;4992625;28;20068;-64
2023/04/14 11:15:10;;;;;;;5.75;2.38;;;16.00;95.00;;;;;;5006188;28;20096;-64
2023/04/14 11:17:38;;;;;;;4.68;2.33;;;16.20;95.80;;;;;;4973426;28;20047;-66
2023/04/14 11:20:18;;;;;;;6.07;2.30;;;16.20;95.10;;;;;;4973723;28;20050;-65
2023/04/14 11:22:47;;;;;;;5.40;2.63;;;16.00;94.20;;;;;;4991300;28;20057;-64
2023/04/14 11:25:15;;;;;;;6.10;2.53;;;16.20;95.10;;;;;;4992304;28;20073;-64
2023/04/14 11:27:43;;;;;;;7.10;2.88;;;16.10;95.30;;;;;;4992866;28;20042;-65
2023/04/14 11:30:15;;;;;;;4.72;2.30;;;15.60;95.20;;;;;;4993059;28;20050;-63
2023/04/14 11:32:53;;;;;;;3.85;2.22;;;15.60;95.50;;;;;;4993131;28;20053;-63
2023/04/14 11:35:22;;;;;;;5.95;2.55;;;15.60;95.80;;;;;;5007064;28;20425;-64
2023/04/14 11:37:54;;;;;;;6.88;2.85;;;15.50;95.60;;;;;;4973099;28;20062;-64
2023/04/14 11:40:22;;;;;;;5.53;2.63;;;15.40;96.10;;;;;;4973837;28;20054;-64
2023/04/14 11:42:56;;;;;;;4.93;2.83;;;15.50;96.50;;;;;;4993221;28;20499;-66
2023/04/14 11:45:28;;;;;;;4.85;2.63;;;15.70;96.30;;;;;;4994854;28;20076;-64
2023/04/14 11:48:03;;;;;;;5.15;2.28;;;15.70;95.40;;;;;;4976930;28;20057;-65
2023/04/14 11:50:31;;;;;;;5.53;2.42;;;15.80;95.90;;;;;;4992408;28;20463;-65
2023/04/14 11:52:59;;;;;;;5.30;2.28;;;16.00;95.20;;;;;;4976938;28;20082;-66
2023/04/14 11:55:29;;;;;;;6.75;2.17;;;16.10;95.00;;;;;;4997007;28;20445;-64
2023/04/14 11:57:56;;;;;;;4.78;2.30;;;16.30;94.40;;;;;;4960430;28;20439;-66
2023/04/14 12:00:23;;;;;;;5.22;2.58;;;16.20;94.90;;;;;;4974600;28;20061;-63
2023/04/14 12:02:50;;;;;;;7.47;2.15;;;16.10;94.10;;;;;;4994240;28;20396;-64
2023/04/14 12:05:30;;;;;;;5.45;2.30;;;15.80;94.50;;;;;;4978932;28;20069;-64
2023/04/14 12:08:06;;;;;;;4.40;2.20;;;15.70;94.30;;;;;;4975579;28;20058;-65
2023/04/14 12:10:32;;;;;;;5.07;2.25;;;15.60;94.40;;;;;;4993727;28;20047;-65
2023/04/14 12:13:04;;;;;;;5.30;2.60;;;15.70;94.90;;;;;;4993701;28;20391;-66
2023/04/14 12:15:32;;;;;;;5.28;1.95;;;15.80;94.70;;;;;;4972888;28;20057;-65
2023/04/14 12:17:59;;;;;;;4.45;2.35;;;16.00;94.90;;;;;;4973502;28;20439;-66
2023/04/14 12:20:26;;;;;;;3.47;2.20;;;15.90;94.60;;;;;;4974697;28;20042;-64
2023/04/14 12:23:00;;;;;;;4.40;2.50;;;15.80;94.30;;;;;;4974425;28;20106;-64
2023/04/14 12:25:31;;;;;;;5.45;2.13;;;15.70;94.50;;;;;;4974461;28;20081;-65
2023/04/14 12:28:01;;;;;;;6.38;2.30;;;15.50;94.50;;;;;;4974510;28;20047;-66
2023/04/14 12:30:28;;;;;;;4.88;2.22;;;15.70;95.00;;;;;;4973704;28;20107;-66
2023/04/14 12:32:55;;;;;;;6.63;2.30;;;16.00;95.00;;;;;;4973371;28;20055;-63
2023/04/14 12:35:23;;;;;;;5.88;2.10;;;15.90;94.50;;;;;;4974399;28;20055;-64
2023/04/14 12:37:50;;;;;;;6.28;2.35;;;16.00;94.60;;;;;;4974490;28;20082;-64
2023/04/14 12:40:17;;;;;;;3.72;2.10;;;15.90;94.20;;;;;;4974630;28;20467;-64
2023/04/14 12:42:47;;;;;;;6.13;2.00;;;15.80;94.00;;;;;;4989482;28;20093;-63
2023/04/14 12:45:16;;;;;;;4.68;1.95;;;15.80;94.40;;;;;;4974193;28;20047;-65
2023/04/14 12:47:52;;;;;;;5.50;2.45;;;15.90;94.20;;;;;;4974002;28;20086;-64
2023/04/14 12:50:29;;;;;;;3.40;1.70;;;15.80;93.40;;;;;;4973978;28;20089;-64
2023/04/14 12:52:56;;;;;;;4.45;1.85;;;15.80;94.10;;;;;;4973979;28;20481;-64
2023/04/14 12:55:27;;;;;;;6.93;2.10;;;15.90;94.70;;;;;;4973967;28;20725;-65
2023/04/14 12:57:54;;;;;;;5.47;2.40;;;16.10;93.50;;;;;;4972551;28;20148;-64